sensor_id;sensor_type;location;lat;lon;timestamp;P1;durP1;ratioP1;P2;durP2;ratioP2
58472;SDS011;44775;51.564;5.460;2023-04-01T00:01:59;6.57;;;2.55;;
58472;SDS011;44775;51.564;5.460;2023-04-01T00:04:25;6.97;;;2.88;;
58472;SDS011;44775;51.564;5.460;2023-04-01T00:06:50;5.57;;;2.35;;
58472;SDS011;44775;51.564;5.460;2023-04-01T00:09:16;6.60;;;2.53;;
58472;SDS011;44775;51.564;5.460;2023-04-01T00:11:42;6.82;;;2.53;;
58472;SDS011;44775;51.564;5.460;2023-04-01T00:14:07;6.10;;;2.85;;
58472;SDS011;44775;51.564;5.460;2023-04-01T00:16:32;9.18;;;2.83;;
58472;SDS011;44775;51.564;5.460;2023-04-01T00:18:58;4.68;;;2.47;;
58472;SDS011;44775;51.564;5.460;2023-04-01T00:21:23;5.82;;;3.10;;
58472;SDS011;44775;51.564;5.460;2023-04-01T00:23:50;7.90;;;3.10;;
58472;SDS011;44775;51.564;5.460;2023-04-01T00:26:16;7.03;;;2.90;;
58472;SDS011;44775;51.564;5.460;2023-04-01T00:28:44;4.63;;;2.70;;
58472;SDS011;44775;51.564;5.460;2023-04-01T00:31:09;6.15;;;3.00;;
58472;SDS011;44775;51.564;5.460;2023-04-01T00:33:35;8.32;;;3.10;;
58472;SDS011;44775;51.564;5.460;2023-04-01T00:36:08;4.05;;;2.78;;
58472;SDS011;44775;51.564;5.460;2023-04-01T00:38:38;8.10;;;3.53;;
58472;SDS011;44775;51.564;5.460;2023-04-01T00:41:04;7.80;;;3.42;;
58472;SDS011;44775;51.564;5.460;2023-04-01T00:43:30;6.38;;;3.53;;
58472;SDS011;44775;51.564;5.460;2023-04-01T00:45:56;6.90;;;3.58;;
58472;SDS011;44775;51.564;5.460;2023-04-01T00:48:23;5.20;;;3.35;;
58472;SDS011;44775;51.564;5.460;2023-04-01T00:51:01;5.35;;;3.47;;
58472;SDS011;44775;51.564;5.460;2023-04-01T00:53:30;6.93;;;4.22;;
58472;SDS011;44775;51.564;5.460;2023-04-01T00:56:01;5.82;;;4.22;;
58472;SDS011;44775;51.564;5.460;2023-04-01T00:58:31;6.97;;;4.15;;
58472;SDS011;44775;51.564;5.460;2023-04-01T01:01:00;6.82;;;4.88;;
58472;SDS011;44775;51.564;5.460;2023-04-01T01:03:26;8.10;;;5.07;;
58472;SDS011;44775;51.564;5.460;2023-04-01T01:05:55;9.70;;;5.88;;
58472;SDS011;44775;51.564;5.460;2023-04-01T01:12:03;5.90;;;4.90;;
58472;SDS011;44775;51.564;5.460;2023-04-01T01:17:00;6.18;;;4.78;;
58472;SDS011;44775;51.564;5.460;2023-04-01T01:22:18;8.93;;;6.40;;
58472;SDS011;44775;51.564;5.460;2023-04-01T01:25:18;9.45;;;6.00;;
58472;SDS011;44775;51.564;5.460;2023-04-01T01:28:14;9.27;;;6.40;;
58472;SDS011;44775;51.564;5.460;2023-04-01T01:33:24;9.00;;;6.50;;
58472;SDS011;44775;51.564;5.460;2023-04-01T01:36:10;9.45;;;6.97;;
58472;SDS011;44775;51.564;5.460;2023-04-01T01:38:38;10.10;;;7.50;;
58472;SDS011;44775;51.564;5.460;2023-04-01T01:41:04;9.85;;;7.45;;
58472;SDS011;44775;51.564;5.460;2023-04-01T01:43:33;9.50;;;8.18;;
58472;SDS011;44775;51.564;5.460;2023-04-01T01:46:11;14.45;;;9.18;;
58472;SDS011;44775;51.564;5.460;2023-04-01T01:48:39;12.65;;;9.00;;
58472;SDS011;44775;51.564;5.460;2023-04-01T01:53:33;13.77;;;9.68;;
58472;SDS011;44775;51.564;5.460;2023-04-01T01:55:59;14.77;;;10.25;;
58472;SDS011;44775;51.564;5.460;2023-04-01T01:58:30;12.48;;;9.23;;
58472;SDS011;44775;51.564;5.460;2023-04-01T02:01:00;14.10;;;10.77;;
58472;SDS011;44775;51.564;5.460;2023-04-01T02:03:31;14.00;;;10.98;;
58472;SDS011;44775;51.564;5.460;2023-04-01T02:05:59;14.10;;;10.48;;
58472;SDS011;44775;51.564;5.460;2023-04-01T02:08:28;11.52;;;9.13;;
58472;SDS011;44775;51.564;5.460;2023-04-01T02:11:01;12.73;;;9.65;;
58472;SDS011;44775;51.564;5.460;2023-04-01T02:16:29;10.77;;;8.23;;
58472;SDS011;44775;51.564;5.460;2023-04-01T02:18:59;10.85;;;7.72;;
58472;SDS011;44775;51.564;5.460;2023-04-01T02:21:27;10.52;;;7.45;;
58472;SDS011;44775;51.564;5.460;2023-04-01T02:23:57;11.27;;;8.05;;
58472;SDS011;44775;51.564;5.460;2023-04-01T02:26:25;10.55;;;7.18;;
58472;SDS011;44775;51.564;5.460;2023-04-01T02:28:51;10.35;;;8.38;;
58472;SDS011;44775;51.564;5.460;2023-04-01T02:31:19;12.70;;;8.63;;
58472;SDS011;44775;51.564;5.460;2023-04-01T02:33:45;13.45;;;9.02;;
58472;SDS011;44775;51.564;5.460;2023-04-01T02:36:12;12.98;;;9.27;;
58472;SDS011;44775;51.564;5.460;2023-04-01T02:38:39;14.82;;;8.80;;
58472;SDS011;44775;51.564;5.460;2023-04-01T02:41:05;16.38;;;11.20;;
58472;SDS011;44775;51.564;5.460;2023-04-01T02:43:31;18.13;;;10.77;;
58472;SDS011;44775;51.564;5.460;2023-04-01T02:45:56;17.17;;;11.70;;
58472;SDS011;44775;51.564;5.460;2023-04-01T02:48:22;16.77;;;10.75;;
58472;SDS011;44775;51.564;5.460;2023-04-01T02:50:47;19.77;;;11.93;;
58472;SDS011;44775;51.564;5.460;2023-04-01T02:53:14;15.15;;;9.63;;
58472;SDS011;44775;51.564;5.460;2023-04-01T02:55:40;16.13;;;10.27;;
58472;SDS011;44775;51.564;5.460;2023-04-01T02:58:06;19.70;;;11.52;;
58472;SDS011;44775;51.564;5.460;2023-04-01T03:00:31;20.70;;;11.02;;
58472;SDS011;44775;51.564;5.460;2023-04-01T03:02:56;16.95;;;10.48;;
58472;SDS011;44775;51.564;5.460;2023-04-01T03:05:22;14.02;;;9.30;;
58472;SDS011;44775;51.564;5.460;2023-04-01T03:07:48;21.90;;;11.82;;
58472;SDS011;44775;51.564;5.460;2023-04-01T03:10:13;20.42;;;12.55;;
58472;SDS011;44775;51.564;5.460;2023-04-01T03:12:39;22.27;;;12.60;;
58472;SDS011;44775;51.564;5.460;2023-04-01T03:15:05;19.33;;;12.30;;
58472;SDS011;44775;51.564;5.460;2023-04-01T03:17:31;22.27;;;13.25;;
58472;SDS011;44775;51.564;5.460;2023-04-01T03:19:56;24.10;;;13.38;;
58472;SDS011;44775;51.564;5.460;2023-04-01T03:22:21;21.77;;;12.68;;
58472;SDS011;44775;51.564;5.460;2023-04-01T03:24:47;20.75;;;11.32;;
58472;SDS011;44775;51.564;5.460;2023-04-01T03:27:13;21.00;;;13.10;;
58472;SDS011;44775;51.564;5.460;2023-04-01T03:29:38;18.88;;;11.88;;
58472;SDS011;44775;51.564;5.460;2023-04-01T03:32:04;22.52;;;12.35;;
58472;SDS011;44775;51.564;5.460;2023-04-01T03:34:30;17.05;;;10.70;;
58472;SDS011;44775;51.564;5.460;2023-04-01T03:36:55;17.60;;;11.07;;
58472;SDS011;44775;51.564;5.460;2023-04-01T03:39:21;17.23;;;11.23;;
58472;SDS011;44775;51.564;5.460;2023-04-01T03:41:46;14.25;;;10.05;;
58472;SDS011;44775;51.564;5.460;2023-04-01T03:44:12;16.98;;;10.23;;
58472;SDS011;44775;51.564;5.460;2023-04-01T03:46:37;15.60;;;9.40;;
58472;SDS011;44775;51.564;5.460;2023-04-01T03:49:05;11.27;;;6.15;;
58472;SDS011;44775;51.564;5.460;2023-04-01T03:51:36;13.75;;;8.77;;
58472;SDS011;44775;51.564;5.460;2023-04-01T03:54:05;13.80;;;8.90;;
58472;SDS011;44775;51.564;5.460;2023-04-01T03:56:31;12.93;;;8.40;;
58472;SDS011;44775;51.564;5.460;2023-04-01T03:58:56;13.38;;;8.82;;
58472;SDS011;44775;51.564;5.460;2023-04-01T04:01:21;13.32;;;8.63;;
58472;SDS011;44775;51.564;5.460;2023-04-01T04:03:47;11.60;;;8.05;;
58472;SDS011;44775;51.564;5.460;2023-04-01T04:06:14;8.77;;;6.47;;
58472;SDS011;44775;51.564;5.460;2023-04-01T04:08:40;7.70;;;6.05;;
58472;SDS011;44775;51.564;5.460;2023-04-01T04:11:05;7.53;;;4.63;;
58472;SDS011;44775;51.564;5.460;2023-04-01T04:13:30;7.82;;;6.30;;
58472;SDS011;44775;51.564;5.460;2023-04-01T04:15:56;8.27;;;6.53;;
58472;SDS011;44775;51.564;5.460;2023-04-01T04:18:21;8.82;;;6.15;;
58472;SDS011;44775;51.564;5.460;2023-04-01T04:20:46;10.10;;;6.30;;
58472;SDS011;44775;51.564;5.460;2023-04-01T04:23:15;8.10;;;6.05;;
58472;SDS011;44775;51.564;5.460;2023-04-01T04:25:40;5.03;;;4.07;;
58472;SDS011;44775;51.564;5.460;2023-04-01T04:28:06;9.30;;;6.25;;
58472;SDS011;44775;51.564;5.460;2023-04-01T04:30:31;8.13;;;6.15;;
58472;SDS011;44775;51.564;5.460;2023-04-01T04:32:56;6.97;;;5.28;;
58472;SDS011;44775;51.564;5.460;2023-04-01T04:35:22;8.55;;;6.10;;
58472;SDS011;44775;51.564;5.460;2023-04-01T04:37:47;9.07;;;6.93;;
58472;SDS011;44775;51.564;5.460;2023-04-01T04:40:12;7.13;;;5.50;;
58472;SDS011;44775;51.564;5.460;2023-04-01T04:42:37;6.72;;;5.47;;
58472;SDS011;44775;51.564;5.460;2023-04-01T04:45:03;9.57;;;6.38;;
58472;SDS011;44775;51.564;5.460;2023-04-01T04:47:28;6.72;;;4.93;;
58472;SDS011;44775;51.564;5.460;2023-04-01T04:49:54;7.68;;;5.10;;
58472;SDS011;44775;51.564;5.460;2023-04-01T04:52:19;8.10;;;5.18;;
58472;SDS011;44775;51.564;5.460;2023-04-01T04:54:45;5.47;;;4.30;;
58472;SDS011;44775;51.564;5.460;2023-04-01T04:57:10;8.85;;;5.25;;
58472;SDS011;44775;51.564;5.460;2023-04-01T04:59:35;7.10;;;4.88;;
58472;SDS011;44775;51.564;5.460;2023-04-01T05:02:01;9.23;;;5.80;;
58472;SDS011;44775;51.564;5.460;2023-04-01T05:04:26;7.50;;;5.45;;
58472;SDS011;44775;51.564;5.460;2023-04-01T05:06:52;8.27;;;5.47;;
58472;SDS011;44775;51.564;5.460;2023-04-01T05:09:17;6.82;;;5.20;;
58472;SDS011;44775;51.564;5.460;2023-04-01T05:11:42;6.20;;;4.88;;
58472;SDS011;44775;51.564;5.460;2023-04-01T05:14:12;6.85;;;5.35;;
58472;SDS011;44775;51.564;5.460;2023-04-01T05:16:38;7.00;;;5.40;;
58472;SDS011;44775;51.564;5.460;2023-04-01T05:19:04;6.13;;;4.55;;
58472;SDS011;44775;51.564;5.460;2023-04-01T05:21:29;7.32;;;5.28;;
58472;SDS011;44775;51.564;5.460;2023-04-01T05:23:54;5.50;;;3.92;;
58472;SDS011;44775;51.564;5.460;2023-04-01T05:26:20;8.45;;;6.07;;
58472;SDS011;44775;51.564;5.460;2023-04-01T05:28:45;5.65;;;4.13;;
58472;SDS011;44775;51.564;5.460;2023-04-01T05:31:10;6.97;;;5.30;;
58472;SDS011;44775;51.564;5.460;2023-04-01T05:33:35;6.32;;;5.28;;
58472;SDS011;44775;51.564;5.460;2023-04-01T05:36:08;6.43;;;5.43;;
58472;SDS011;44775;51.564;5.460;2023-04-01T05:38:40;6.45;;;5.07;;
58472;SDS011;44775;51.564;5.460;2023-04-01T05:41:07;7.25;;;5.38;;
58472;SDS011;44775;51.564;5.460;2023-04-01T05:43:35;5.03;;;4.25;;
58472;SDS011;44775;51.564;5.460;2023-04-01T05:46:01;6.78;;;4.97;;
58472;SDS011;44775;51.564;5.460;2023-04-01T05:48:26;6.05;;;4.65;;
58472;SDS011;44775;51.564;5.460;2023-04-01T05:50:51;6.88;;;5.00;;
58472;SDS011;44775;51.564;5.460;2023-04-01T05:53:17;5.13;;;3.80;;
58472;SDS011;44775;51.564;5.460;2023-04-01T05:55:42;7.10;;;5.38;;
58472;SDS011;44775;51.564;5.460;2023-04-01T05:58:07;7.15;;;5.03;;
58472;SDS011;44775;51.564;5.460;2023-04-01T06:00:33;8.25;;;6.53;;
58472;SDS011;44775;51.564;5.460;2023-04-01T06:02:58;7.45;;;5.70;;
58472;SDS011;44775;51.564;5.460;2023-04-01T06:05:26;9.65;;;6.75;;
58472;SDS011;44775;51.564;5.460;2023-04-01T06:08:01;12.43;;;8.43;;
58472;SDS011;44775;51.564;5.460;2023-04-01T06:10:45;9.50;;;6.28;;
58472;SDS011;44775;51.564;5.460;2023-04-01T06:16:19;9.57;;;6.70;;
58472;SDS011;44775;51.564;5.460;2023-04-01T06:19:11;14.55;;;9.77;;
58472;SDS011;44775;51.564;5.460;2023-04-01T06:32:36;10.35;;;7.85;;
58472;SDS011;44775;51.564;5.460;2023-04-01T06:45:59;12.75;;;9.20;;
58472;SDS011;44775;51.564;5.460;2023-04-01T06:48:53;14.48;;;10.13;;
58472;SDS011;44775;51.564;5.460;2023-04-01T06:51:40;12.90;;;9.45;;
58472;SDS011;44775;51.564;5.460;2023-04-01T06:54:17;15.95;;;10.90;;
58472;SDS011;44775;51.564;5.460;2023-04-01T06:56:48;16.70;;;10.73;;
58472;SDS011;44775;51.564;5.460;2023-04-01T06:59:30;11.57;;;8.38;;
58472;SDS011;44775;51.564;5.460;2023-04-01T07:02:03;14.17;;;9.40;;
58472;SDS011;44775;51.564;5.460;2023-04-01T07:04:40;15.40;;;9.40;;
58472;SDS011;44775;51.564;5.460;2023-04-01T07:09:41;18.05;;;11.00;;
58472;SDS011;44775;51.564;5.460;2023-04-01T07:15:00;19.73;;;11.82;;
58472;SDS011;44775;51.564;5.460;2023-04-01T07:17:30;22.85;;;13.98;;
58472;SDS011;44775;51.564;5.460;2023-04-01T07:22:45;11.75;;;7.97;;
58472;SDS011;44775;51.564;5.460;2023-04-01T07:25:18;16.73;;;10.88;;
58472;SDS011;44775;51.564;5.460;2023-04-01T07:27:47;16.73;;;10.07;;
58472;SDS011;44775;51.564;5.460;2023-04-01T07:30:17;17.52;;;10.75;;
58472;SDS011;44775;51.564;5.460;2023-04-01T07:35:51;5.72;;;4.03;;
58472;SDS011;44775;51.564;5.460;2023-04-01T07:46:23;8.57;;;6.15;;
58472;SDS011;44775;51.564;5.460;2023-04-01T07:49:07;16.85;;;11.15;;
58472;SDS011;44775;51.564;5.460;2023-04-01T07:52:22;6.68;;;3.72;;
58472;SDS011;44775;51.564;5.460;2023-04-01T07:55:32;15.85;;;10.52;;
58472;SDS011;44775;51.564;5.460;2023-04-01T07:58:16;17.60;;;10.80;;
58472;SDS011;44775;51.564;5.460;2023-04-01T08:01:21;7.28;;;4.93;;
58472;SDS011;44775;51.564;5.460;2023-04-01T08:07:05;16.33;;;9.40;;
58472;SDS011;44775;51.564;5.460;2023-04-01T08:09:51;15.10;;;9.13;;
58472;SDS011;44775;51.564;5.460;2023-04-01T08:12:36;12.65;;;8.75;;
58472;SDS011;44775;51.564;5.460;2023-04-01T08:18:02;13.77;;;7.40;;
58472;SDS011;44775;51.564;5.460;2023-04-01T08:23:18;16.25;;;10.45;;
58472;SDS011;44775;51.564;5.460;2023-04-01T08:29:23;17.60;;;11.30;;
58472;SDS011;44775;51.564;5.460;2023-04-01T08:31:37;15.10;;;9.32;;
58472;SDS011;44775;51.564;5.460;2023-04-01T08:34:15;10.98;;;7.18;;
58472;SDS011;44775;51.564;5.460;2023-04-01T08:36:46;17.42;;;10.40;;
58472;SDS011;44775;51.564;5.460;2023-04-01T08:50:15;13.93;;;7.60;;
58472;SDS011;44775;51.564;5.460;2023-04-01T09:04:24;7.72;;;5.68;;
58472;SDS011;44775;51.564;5.460;2023-04-01T09:18:30;13.40;;;9.07;;
58472;SDS011;44775;51.564;5.460;2023-04-01T09:27:00;15.32;;;10.30;;
58472;SDS011;44775;51.564;5.460;2023-04-01T09:35:24;9.48;;;6.95;;
58472;SDS011;44775;51.564;5.460;2023-04-01T09:38:20;11.32;;;7.40;;
58472;SDS011;44775;51.564;5.460;2023-04-01T09:43:22;9.75;;;6.05;;
58472;SDS011;44775;51.564;5.460;2023-04-01T09:59:40;6.65;;;4.60;;
58472;SDS011;44775;51.564;5.460;2023-04-01T10:17:19;7.65;;;6.55;;
58472;SDS011;44775;51.564;5.460;2023-04-01T10:33:57;5.57;;;4.53;;
58472;SDS011;44775;51.564;5.460;2023-04-01T10:36:54;10.07;;;9.02;;
58472;SDS011;44775;51.564;5.460;2023-04-01T10:45:09;10.18;;;8.85;;
58472;SDS011;44775;51.564;5.460;2023-04-01T10:53:38;9.25;;;7.75;;
58472;SDS011;44775;51.564;5.460;2023-04-01T11:02:01;11.63;;;10.23;;
58472;SDS011;44775;51.564;5.460;2023-04-01T11:07:26;9.93;;;8.02;;
58472;SDS011;44775;51.564;5.460;2023-04-01T11:15:24;13.35;;;10.73;;
58472;SDS011;44775;51.564;5.460;2023-04-01T11:38:22;11.82;;;10.23;;
58472;SDS011;44775;51.564;5.460;2023-04-01T11:44:15;17.13;;;13.00;;
58472;SDS011;44775;51.564;5.460;2023-04-01T12:12:39;11.50;;;9.45;;
58472;SDS011;44775;51.564;5.460;2023-04-01T12:15:36;14.40;;;10.20;;
58472;SDS011;44775;51.564;5.460;2023-04-01T12:18:38;10.80;;;8.95;;
58472;SDS011;44775;51.564;5.460;2023-04-01T12:24:19;10.05;;;7.72;;
58472;SDS011;44775;51.564;5.460;2023-04-01T12:36:15;10.55;;;8.25;;
58472;SDS011;44775;51.564;5.460;2023-04-01T12:44:23;12.35;;;9.57;;
58472;SDS011;44775;51.564;5.460;2023-04-01T12:55:53;8.63;;;7.72;;
58472;SDS011;44775;51.564;5.460;2023-04-01T13:01:04;9.35;;;8.30;;
58472;SDS011;44775;51.564;5.460;2023-04-01T13:04:01;11.75;;;9.15;;
58472;SDS011;44775;51.564;5.460;2023-04-01T13:06:45;9.55;;;7.68;;
58472;SDS011;44775;51.564;5.460;2023-04-01T13:12:20;6.55;;;5.38;;
58472;SDS011;44775;51.564;5.460;2023-04-01T13:31:02;11.82;;;8.38;;
58472;SDS011;44775;51.564;5.460;2023-04-01T13:33:37;6.07;;;5.35;;
58472;SDS011;44775;51.564;5.460;2023-04-01T13:36:28;5.68;;;5.00;;
58472;SDS011;44775;51.564;5.460;2023-04-01T13:39:17;8.05;;;6.75;;
58472;SDS011;44775;51.564;5.460;2023-04-01T13:42:02;8.25;;;7.25;;
58472;SDS011;44775;51.564;5.460;2023-04-01T13:45:02;8.80;;;6.30;;
58472;SDS011;44775;51.564;5.460;2023-04-01T13:53:19;10.05;;;8.90;;
58472;SDS011;44775;51.564;5.460;2023-04-01T13:55:53;7.90;;;7.10;;
58472;SDS011;44775;51.564;5.460;2023-04-01T14:24:03;8.30;;;7.38;;
58472;SDS011;44775;51.564;5.460;2023-04-01T14:32:10;7.78;;;6.88;;
58472;SDS011;44775;51.564;5.460;2023-04-01T14:34:48;9.93;;;7.95;;
58472;SDS011;44775;51.564;5.460;2023-04-01T14:51:09;9.15;;;7.70;;
58472;SDS011;44775;51.564;5.460;2023-04-01T14:53:58;6.75;;;5.13;;
58472;SDS011;44775;51.564;5.460;2023-04-01T14:56:39;9.55;;;8.20;;
58472;SDS011;44775;51.564;5.460;2023-04-01T14:59:30;12.38;;;9.63;;
58472;SDS011;44775;51.564;5.460;2023-04-01T15:04:57;9.13;;;7.78;;
58472;SDS011;44775;51.564;5.460;2023-04-01T15:29:40;10.77;;;7.97;;
58472;SDS011;44775;51.564;5.460;2023-04-01T15:32:38;9.10;;;7.45;;
58472;SDS011;44775;51.564;5.460;2023-04-01T15:38:09;10.65;;;7.63;;
58472;SDS011;44775;51.564;5.460;2023-04-01T15:40:51;7.90;;;6.32;;
58472;SDS011;44775;51.564;5.460;2023-04-01T15:54:19;9.98;;;8.50;;
58472;SDS011;44775;51.564;5.460;2023-04-01T15:59:36;12.00;;;8.88;;
58472;SDS011;44775;51.564;5.460;2023-04-01T16:02:40;11.40;;;8.80;;
58472;SDS011;44775;51.564;5.460;2023-04-01T16:07:55;12.15;;;9.15;;
58472;SDS011;44775;51.564;5.460;2023-04-01T16:10:31;11.02;;;9.18;;
58472;SDS011;44775;51.564;5.460;2023-04-01T16:18:54;13.77;;;8.80;;
58472;SDS011;44775;51.564;5.460;2023-04-01T16:21:40;11.63;;;9.23;;
58472;SDS011;44775;51.564;5.460;2023-04-01T16:24:15;13.10;;;9.40;;
58472;SDS011;44775;51.564;5.460;2023-04-01T16:26:55;12.07;;;9.13;;
58472;SDS011;44775;51.564;5.460;2023-04-01T16:32:36;11.38;;;8.88;;
58472;SDS011;44775;51.564;5.460;2023-04-01T16:38:03;10.60;;;6.97;;
58472;SDS011;44775;51.564;5.460;2023-04-01T16:41:38;10.57;;;7.50;;
58472;SDS011;44775;51.564;5.460;2023-04-01T16:43:41;10.88;;;7.90;;
58472;SDS011;44775;51.564;5.460;2023-04-01T16:48:45;9.57;;;7.45;;
58472;SDS011;44775;51.564;5.460;2023-04-01T16:51:21;10.68;;;8.05;;
58472;SDS011;44775;51.564;5.460;2023-04-01T16:53:49;6.78;;;5.30;;
58472;SDS011;44775;51.564;5.460;2023-04-01T16:56:28;9.52;;;6.85;;
58472;SDS011;44775;51.564;5.460;2023-04-01T17:01:47;7.20;;;5.47;;
58472;SDS011;44775;51.564;5.460;2023-04-01T17:04:32;5.90;;;4.50;;
58472;SDS011;44775;51.564;5.460;2023-04-01T17:15:10;4.25;;;3.83;;
58472;SDS011;44775;51.564;5.460;2023-04-01T17:17:51;6.65;;;5.07;;
58472;SDS011;44775;51.564;5.460;2023-04-01T17:23:25;7.43;;;5.20;;
58472;SDS011;44775;51.564;5.460;2023-04-01T17:25:55;5.30;;;4.47;;
58472;SDS011;44775;51.564;5.460;2023-04-01T17:28:35;5.43;;;4.50;;
58472;SDS011;44775;51.564;5.460;2023-04-01T17:31:14;6.35;;;4.78;;
58472;SDS011;44775;51.564;5.460;2023-04-01T17:39:15;5.57;;;3.90;;
58472;SDS011;44775;51.564;5.460;2023-04-01T17:47:19;4.28;;;3.83;;
58472;SDS011;44775;51.564;5.460;2023-04-01T17:58:41;5.30;;;4.63;;
58472;SDS011;44775;51.564;5.460;2023-04-01T18:17:21;5.55;;;4.68;;
58472;SDS011;44775;51.564;5.460;2023-04-01T18:30:31;5.47;;;4.63;;
58472;SDS011;44775;51.564;5.460;2023-04-01T18:35:51;4.22;;;3.80;;
58472;SDS011;44775;51.564;5.460;2023-04-01T18:38:30;3.88;;;3.45;;
58472;SDS011;44775;51.564;5.460;2023-04-01T18:43:36;4.72;;;3.75;;
58472;SDS011;44775;51.564;5.460;2023-04-01T18:46:16;3.90;;;3.53;;
58472;SDS011;44775;51.564;5.460;2023-04-01T18:48:51;3.88;;;3.45;;
58472;SDS011;44775;51.564;5.460;2023-04-01T18:51:33;3.60;;;3.30;;
58472;SDS011;44775;51.564;5.460;2023-04-01T18:57:37;3.25;;;2.95;;
58472;SDS011;44775;51.564;5.460;2023-04-01T18:59:51;4.45;;;3.97;;
58472;SDS011;44775;51.564;5.460;2023-04-01T19:05:08;4.82;;;3.97;;
58472;SDS011;44775;51.564;5.460;2023-04-01T19:07:53;5.93;;;5.28;;
58472;SDS011;44775;51.564;5.460;2023-04-01T19:15:46;5.53;;;4.63;;
58472;SDS011;44775;51.564;5.460;2023-04-01T19:29:18;4.50;;;4.10;;
58472;SDS011;44775;51.564;5.460;2023-04-01T19:34:53;7.43;;;6.25;;
58472;SDS011;44775;51.564;5.460;2023-04-01T19:40:07;4.00;;;3.60;;
58472;SDS011;44775;51.564;5.460;2023-04-01T19:45:43;8.18;;;6.70;;
58472;SDS011;44775;51.564;5.460;2023-04-01T19:50:58;30.33;;;27.13;;
58472;SDS011;44775;51.564;5.460;2023-04-01T19:53:33;9.25;;;8.30;;
58472;SDS011;44775;51.564;5.460;2023-04-01T19:56:21;4.05;;;3.65;;
58472;SDS011;44775;51.564;5.460;2023-04-01T20:04:08;6.40;;;5.75;;
58472;SDS011;44775;51.564;5.460;2023-04-01T20:14:56;8.07;;;7.20;;
58472;SDS011;44775;51.564;5.460;2023-04-01T20:17:43;5.75;;;4.70;;
58472;SDS011;44775;51.564;5.460;2023-04-01T20:28:20;8.43;;;6.78;;
58472;SDS011;44775;51.564;5.460;2023-04-01T20:33:41;4.72;;;4.03;;
58472;SDS011;44775;51.564;5.460;2023-04-01T20:44:48;7.65;;;6.85;;
58472;SDS011;44775;51.564;5.460;2023-04-01T20:53:32;10.75;;;7.10;;
58472;SDS011;44775;51.564;5.460;2023-04-01T21:09:53;4.97;;;4.50;;
58472;SDS011;44775;51.564;5.460;2023-04-01T21:12:45;6.45;;;5.75;;
58472;SDS011;44775;51.564;5.460;2023-04-01T21:15:19;6.75;;;6.05;;
58472;SDS011;44775;51.564;5.460;2023-04-01T21:23:28;4.63;;;4.20;;
58472;SDS011;44775;51.564;5.460;2023-04-01T21:29:15;7.32;;;6.63;;
58472;SDS011;44775;51.564;5.460;2023-04-01T21:45:56;8.80;;;7.85;;
58472;SDS011;44775;51.564;5.460;2023-04-01T21:51:27;6.80;;;6.13;;
58472;SDS011;44775;51.564;5.460;2023-04-01T22:05:45;6.95;;;5.88;;
58472;SDS011;44775;51.564;5.460;2023-04-01T22:08:20;4.47;;;4.03;;
58472;SDS011;44775;51.564;5.460;2023-04-01T22:10:54;9.57;;;8.48;;
58472;SDS011;44775;51.564;5.460;2023-04-01T22:18:51;9.40;;;8.18;;
58472;SDS011;44775;51.564;5.460;2023-04-01T22:24:03;6.93;;;5.78;;
58472;SDS011;44775;51.564;5.460;2023-04-01T22:29:24;11.93;;;9.18;;
58472;SDS011;44775;51.564;5.460;2023-04-01T22:32:00;6.50;;;5.45;;
58472;SDS011;44775;51.564;5.460;2023-04-01T22:40:08;9.70;;;8.70;;
58472;SDS011;44775;51.564;5.460;2023-04-01T22:42:53;10.98;;;9.88;;
58472;SDS011;44775;51.564;5.460;2023-04-01T22:45:43;8.05;;;6.95;;
58472;SDS011;44775;51.564;5.460;2023-04-01T22:56:30;12.45;;;11.15;;
58472;SDS011;44775;51.564;5.460;2023-04-01T22:59:24;12.60;;;9.50;;
58472;SDS011;44775;51.564;5.460;2023-04-01T23:04:42;6.47;;;5.85;;
58472;SDS011;44775;51.564;5.460;2023-04-01T23:07:19;9.63;;;8.63;;
58472;SDS011;44775;51.564;5.460;2023-04-01T23:09:58;8.87;;;7.97;;
58472;SDS011;44775;51.564;5.460;2023-04-01T23:12:27;9.93;;;8.93;;
58472;SDS011;44775;51.564;5.460;2023-04-01T23:14:56;10.82;;;9.73;;
58472;SDS011;44775;51.564;5.460;2023-04-01T23:22:39;8.68;;;7.78;;
58472;SDS011;44775;51.564;5.460;2023-04-01T23:25:32;10.30;;;8.63;;
58472;SDS011;44775;51.564;5.460;2023-04-01T23:33:11;8.32;;;7.50;;
58472;SDS011;44775;51.564;5.460;2023-04-01T23:35:50;7.47;;;6.75;;
58472;SDS011;44775;51.564;5.460;2023-04-01T23:38:22;6.40;;;5.23;;
58472;SDS011;44775;51.564;5.460;2023-04-01T23:40:51;8.93;;;7.03;;
58472;SDS011;44775;51.564;5.460;2023-04-01T23:43:22;9.50;;;8.50;;
58472;SDS011;44775;51.564;5.460;2023-04-01T23:45:48;7.72;;;6.90;;
58472;SDS011;44775;51.564;5.460;2023-04-01T23:48:14;6.38;;;5.30;;
58472;SDS011;44775;51.564;5.460;2023-04-01T23:50:41;8.98;;;7.85;;
58472;SDS011;44775;51.564;5.460;2023-04-01T23:53:41;6.32;;;5.70;;
58472;SDS011;44775;51.564;5.460;2023-04-01T23:55:59;5.50;;;5.00;;
58472;SDS011;44775;51.564;5.460;2023-04-01T23:58:34;7.23;;;6.50;;
